Time;durP1;ratioP1;P1;durP2;ratioP2;P2;SDS_P1;SDS_P2;PMS_P1;PMS_P2;Temp;Humidity;BMP_temperature;BMP_pressure;BME280_temperature;BME280_humidity;BME280_pressure;Samples;Min_cycle;Max_cycle;Signal;HPM_P1;HPM_P2
2022/12/04 00:01:42;;;;;;;74.53;24.30;;;1.30;99.90;;;;;;5056571;28;20319;-80
2022/12/04 00:04:09;;;;;;;80.23;24.07;;;1.20;99.90;;;;;;5040035;28;20711;-77
2022/12/04 00:06:37;;;;;;;80.97;24.63;;;1.30;99.90;;;;;;5056862;28;20220;-80
2022/12/04 00:09:08;;;;;;;81.53;26.00;;;1.20;99.90;;;;;;5056766;28;20565;-81
2022/12/04 00:12:24;;;;;;;;;;;;;;;;;;;;;
2022/12/04 00:15:13;;;;;;;79.23;24.43;;;1.30;99.90;;;;;;5073924;28;20651;-79
2022/12/04 00:19:11;;;;;;;80.03;25.30;;;1.40;99.90;;;;;;5083861;28;20228;-78
2022/12/04 00:21:54;;;;;;;83.90;25.70;;;1.30;99.90;;;;;;5077631;28;20203;-82
2022/12/04 00:24:21;;;;;;;87.67;26.57;;;1.30;99.90;;;;;;5093213;28;20251;-78
2022/12/04 00:26:54;;;;;;;83.50;26.13;;;1.30;99.90;;;;;;5093331;28;20229;-78
2022/12/04 00:29:28;;;;;;;78.67;24.50;;;1.30;99.90;;;;;;5094619;28;20212;-76
2022/12/04 00:32:10;;;;;;;71.30;24.50;;;1.40;99.90;;;;;;5092928;28;20206;-82
2022/12/04 00:34:56;;;;;;;71.47;23.37;;;1.40;99.90;;;;;;5077215;28;20199;-79
2022/12/04 00:37:27;;;;;;;73.07;24.40;;;1.40;99.90;;;;;;5093186;28;20232;-77
2022/12/04 00:39:57;;;;;;;73.10;24.90;;;1.30;99.90;;;;;;5076096;28;20250;-78
2022/12/04 00:42:40;;;;;;;64.37;22.03;;;1.20;99.90;;;;;;5093334;28;20200;-80
2022/12/04 00:45:13;;;;;;;75.03;23.50;;;1.30;99.90;;;;;;5076972;28;20193;-81
2022/12/04 00:47:50;;;;;;;74.40;24.23;;;1.30;99.90;;;;;;5093078;28;20193;-77
2022/12/04 00:50:20;;;;;;;68.80;23.83;;;1.30;99.90;;;;;;5093379;28;20653;-78
2022/12/04 00:53:11;;;;;;;71.50;23.13;;;1.30;99.90;;;;;;5093950;28;20198;-77
2022/12/04 00:55:45;;;;;;;72.90;23.23;;;1.20;99.90;;;;;;5092619;28;20278;-81
2022/12/04 00:59:14;;;;;;;75.20;23.67;;;1.30;99.90;;;;;;5018608;28;20279;-81
2022/12/04 01:02:17;;;;;;;73.90;23.83;;;1.40;99.90;;;;;;4960527;28;20208;-78
2022/12/04 01:04:55;;;;;;;66.73;22.30;;;1.30;99.90;;;;;;4977364;28;20205;-77
2022/12/04 01:07:49;;;;;;;72.37;24.33;;;1.30;99.90;;;;;;4976090;28;20207;-79
2022/12/04 01:10:57;;;;;;;76.30;22.83;;;1.20;99.90;;;;;;4992233;28;20288;-80
2022/12/04 01:13:50;;;;;;;71.83;23.37;;;1.40;99.90;;;;;;4937441;29;20192;-78
2022/12/04 01:16:33;;;;;;;71.43;23.17;;;1.30;99.90;;;;;;4937155;29;20222;-78
2022/12/04 01:19:22;;;;;;;64.60;22.03;;;1.40;99.90;;;;;;4953219;28;20289;-79
2022/12/04 01:22:00;;;;;;;65.43;23.07;;;1.30;99.90;;;;;;4937356;29;20687;-78
2022/12/04 01:24:31;;;;;;;65.60;20.77;;;1.30;99.90;;;;;;4921813;29;20295;-81
2022/12/04 01:26:58;;;;;;;68.13;22.83;;;1.30;99.90;;;;;;4953117;28;20219;-80
2022/12/04 01:29:26;;;;;;;62.73;22.10;;;1.20;99.90;;;;;;4953006;28;20784;-80
2022/12/04 01:32:02;;;;;;;65.70;22.63;;;1.20;99.90;;;;;;4953304;29;20687;-80
2022/12/04 01:34:30;;;;;;;59.87;21.77;;;1.20;99.90;;;;;;4932999;29;20208;-79
2022/12/04 01:36:57;;;;;;;66.37;21.70;;;1.40;99.90;;;;;;4955414;28;20234;-78
2022/12/04 01:39:24;;;;;;;65.17;21.53;;;1.20;99.90;;;;;;4994842;28;20205;-77
2022/12/04 01:41:51;;;;;;;67.00;21.60;;;1.20;99.90;;;;;;4994728;28;20211;-78
2022/12/04 01:45:02;;;;;;;62.00;21.83;;;1.10;99.90;;;;;;4991115;28;20256;-78
2022/12/04 01:47:29;;;;;;;61.87;20.83;;;1.20;99.90;;;;;;4918173;29;20256;-78
2022/12/04 01:50:11;;;;;;;65.40;23.17;;;1.20;99.90;;;;;;4956713;28;20410;-79
2022/12/04 01:52:42;;;;;;;69.27;22.27;;;1.20;99.90;;;;;;4994508;28;20210;-80
2022/12/04 01:55:15;;;;;;;66.70;21.27;;;1.30;99.90;;;;;;4995248;28;20257;-80
2022/12/04 01:57:45;;;;;;;73.40;22.93;;;1.30;99.90;;;;;;4993891;28;20235;-80
2022/12/04 02:00:16;;;;;;;75.87;23.23;;;1.40;99.90;;;;;;4995405;28;20198;-79
2022/12/04 02:02:47;;;;;;;67.77;23.10;;;1.40;99.90;;;;;;4995408;28;20292;-78
2022/12/04 02:05:24;;;;;;;74.10;24.03;;;1.30;99.90;;;;;;4994317;28;20540;-80
2022/12/04 02:08:03;;;;;;;69.73;22.43;;;1.40;99.90;;;;;;5010945;28;20192;-81
2022/12/04 02:10:45;;;;;;;66.87;21.23;;;1.30;99.90;;;;;;4994997;28;20218;-77
2022/12/04 02:13:50;;;;;;;62.47;22.47;;;1.30;99.90;;;;;;4994463;28;20621;-78
2022/12/04 02:16:45;;;;;;;63.87;22.40;;;1.30;99.90;;;;;;4936060;29;20229;-80
2022/12/04 02:19:49;;;;;;;68.67;21.47;;;1.30;99.90;;;;;;4936746;29;20282;-79
2022/12/04 02:22:56;;;;;;;61.27;21.33;;;1.30;99.90;;;;;;4952596;29;20234;-79
2022/12/04 02:26:07;;;;;;;64.83;22.43;;;1.30;99.90;;;;;;4993195;28;20208;-79
2022/12/04 02:29:01;;;;;;;60.77;20.43;;;1.30;99.90;;;;;;4994231;28;20290;-80
2022/12/04 02:31:41;;;;;;;61.57;21.17;;;1.30;99.90;;;;;;4936352;29;20197;-80
2022/12/04 02:34:49;;;;;;;69.97;22.67;;;1.40;99.90;;;;;;4952427;29;20202;-79
2022/12/04 02:37:39;;;;;;;59.43;22.00;;;1.40;99.90;;;;;;4936131;29;20287;-80
2022/12/04 02:40:43;;;;;;;69.23;22.43;;;1.30;99.90;;;;;;4936466;29;20201;-80
2022/12/04 02:43:43;;;;;;;64.30;22.77;;;1.40;99.90;;;;;;4951528;28;20200;-82
2022/12/04 02:46:56;;;;;;;63.10;22.63;;;1.30;99.90;;;;;;4959175;28;20209;-77
2022/12/04 02:49:57;;;;;;;63.27;21.37;;;1.30;99.90;;;;;;4959948;28;20215;-78
2022/12/04 02:52:51;;;;;;;69.53;22.63;;;1.30;99.90;;;;;;4991217;28;20548;-77
2022/12/04 02:55:55;;;;;;;63.70;21.67;;;1.40;99.90;;;;;;4935255;29;20668;-78
2022/12/04 02:59:07;;;;;;;69.03;23.00;;;1.30;99.90;;;;;;4936443;29;20212;-83
2022/12/04 03:02:50;;;;;;;67.63;22.10;;;1.30;99.90;;;;;;4935827;29;20569;-78
2022/12/04 03:05:42;;;;;;;66.43;22.53;;;1.30;99.90;;;;;;4955552;29;20203;-78
2022/12/04 03:08:41;;;;;;;71.93;23.63;;;1.30;99.90;;;;;;4984280;28;20199;-83
2022/12/04 03:11:41;;;;;;;70.30;23.10;;;1.20;99.90;;;;;;5045543;28;20608;-82
2022/12/04 03:14:47;;;;;;;63.33;21.53;;;1.30;99.90;;;;;;5036506;28;20208;-78
2022/12/04 03:17:37;;;;;;;62.97;21.20;;;1.20;99.90;;;;;;5042949;28;20241;-82
2022/12/04 03:20:24;;;;;;;62.20;20.20;;;1.20;99.90;;;;;;5042129;28;20626;-82
2022/12/04 03:23:11;;;;;;;63.87;21.30;;;1.20;99.90;;;;;;5075988;28;20197;-84
2022/12/04 03:26:21;;;;;;;61.03;20.83;;;1.20;99.90;;;;;;5057688;28;20196;-80
2022/12/04 03:34:39;;;;;;;57.93;19.90;;;1.10;99.90;;;;;;4993553;28;20204;-79
2022/12/04 03:38:02;;;;;;;59.10;19.33;;;1.30;99.90;;;;;;4958135;28;20341;-82
2022/12/04 03:41:10;;;;;;;62.73;21.27;;;1.30;99.90;;;;;;4943485;28;20669;-83
2022/12/04 03:44:15;;;;;;;63.67;22.23;;;1.10;99.90;;;;;;4974462;28;20608;-79
2022/12/04 03:47:18;;;;;;;66.20;21.27;;;1.20;99.90;;;;;;4958872;28;20203;-81
2022/12/04 03:50:30;;;;;;;64.37;21.13;;;1.20;99.90;;;;;;4942985;28;20200;-81
2022/12/04 03:53:18;;;;;;;63.87;20.90;;;1.10;99.90;;;;;;4953058;28;20256;-77
2022/12/04 03:56:06;;;;;;;62.77;21.43;;;1.20;99.90;;;;;;4974014;28;20190;-82
2022/12/04 03:58:54;;;;;;;57.77;19.30;;;1.20;99.90;;;;;;4943383;28;20204;-81
2022/12/04 04:01:34;;;;;;;61.27;20.87;;;1.20;99.90;;;;;;4958745;28;20219;-83
2022/12/04 04:04:15;;;;;;;55.93;19.00;;;1.10;99.90;;;;;;4988019;28;20589;-82
2022/12/04 04:07:32;;;;;;;61.37;20.43;;;1.20;99.90;;;;;;4993513;28;20670;-80
2022/12/04 04:10:48;;;;;;;57.97;19.73;;;1.10;99.90;;;;;;4986128;28;20231;-77
2022/12/04 04:24:31;;;;;;;60.33;19.80;;;1.00;99.90;;;;;;4954294;28;20190;-78
2022/12/04 04:28:04;;;;;;;56.13;19.13;;;1.20;99.90;;;;;;4954509;29;20203;-77
2022/12/04 04:31:24;;;;;;;46.03;16.97;;;1.10;99.90;;;;;;4914044;29;20305;-82
2022/12/04 04:35:03;;;;;;;51.57;17.53;;;1.10;99.90;;;;;;4915680;29;20202;-82
2022/12/04 04:38:07;;;;;;;45.63;16.93;;;1.00;99.90;;;;;;4900170;29;20237;-83
2022/12/04 04:41:50;;;;;;;57.97;19.77;;;1.00;99.90;;;;;;4919146;29;20642;-83
2022/12/04 04:44:48;;;;;;;50.17;17.80;;;1.00;99.90;;;;;;4844660;29;20232;-79
2022/12/04 04:48:09;;;;;;;58.43;19.23;;;1.00;99.90;;;;;;4844183;29;20227;-83
2022/12/04 04:51:22;;;;;;;46.40;17.23;;;1.00;99.90;;;;;;4830608;29;20249;-84
2022/12/04 04:54:21;;;;;;;50.70;17.80;;;1.00;99.90;;;;;;4867918;29;20203;-82
2022/12/04 04:57:43;;;;;;;49.47;18.33;;;1.00;99.90;;;;;;4884294;29;20228;-81
2022/12/04 05:01:01;;;;;;;49.97;18.73;;;1.00;99.90;;;;;;4881484;29;20227;-81
2022/12/04 05:04:06;;;;;;;49.50;18.20;;;1.00;99.90;;;;;;4893078;29;20249;-80
2022/12/04 05:07:02;;;;;;;;;;;;;;;;;;;;;
2022/12/04 05:10:13;;;;;;;55.30;17.70;;;1.00;99.90;;;;;;4933470;29;20230;-81
2022/12/04 05:13:13;;;;;;;52.53;18.27;;;1.00;99.90;;;;;;4920212;29;20213;-81
2022/12/04 05:16:43;;;;;;;51.50;18.67;;;1.00;99.90;;;;;;4934557;29;20707;-78
2022/12/04 05:19:56;;;;;;;52.20;18.07;;;1.00;99.90;;;;;;4896321;29;20212;-82
2022/12/04 05:23:20;;;;;;;49.27;18.10;;;1.00;99.90;;;;;;4882032;29;20202;-79
2022/12/04 05:26:10;;;;;;;51.73;18.23;;;1.00;99.90;;;;;;4918670;29;20212;-78
2022/12/04 05:28:50;;;;;;;46.50;16.83;;;1.00;99.90;;;;;;4934138;29;20236;-76
2022/12/04 05:31:20;;;;;;;53.97;18.30;;;1.00;99.90;;;;;;4918180;29;20234;-82
2022/12/04 05:34:24;;;;;;;48.70;18.07;;;1.00;99.90;;;;;;4918631;29;20313;-79
2022/12/04 05:37:16;;;;;;;50.70;18.90;;;1.10;99.90;;;;;;4933731;29;20215;-78
2022/12/04 05:39:49;;;;;;;53.43;17.93;;;1.20;99.90;;;;;;4944967;29;20216;-79
2022/12/04 05:42:25;;;;;;;54.90;20.00;;;1.10;99.90;;;;;;4936891;29;20208;-78
2022/12/04 05:45:03;;;;;;;54.93;17.87;;;1.20;99.90;;;;;;4952819;29;20208;-77
2022/12/04 05:47:59;;;;;;;57.00;19.67;;;1.10;99.90;;;;;;4953103;29;20229;-80
2022/12/04 05:51:12;;;;;;;54.73;20.03;;;1.10;99.90;;;;;;4844412;29;20256;-82
2022/12/04 05:53:43;;;;;;;55.90;19.60;;;1.20;99.90;;;;;;4862185;29;20233;-82
2022/12/04 05:56:46;;;;;;;58.87;20.10;;;1.30;99.90;;;;;;4861664;29;20232;-81
2022/12/04 05:59:13;;;;;;;60.47;20.07;;;1.20;99.90;;;;;;4825206;29;20213;-79
2022/12/04 06:02:01;;;;;;;53.03;19.50;;;1.10;99.90;;;;;;4863671;29;20209;-81
2022/12/04 06:04:36;;;;;;;56.30;18.87;;;1.00;99.90;;;;;;4898626;29;20210;-79
2022/12/04 06:10:41;;;;;;;53.70;19.27;;;1.00;99.90;;;;;;4898544;29;20317;-77
2022/12/04 06:13:16;;;;;;;53.50;19.03;;;0.90;99.90;;;;;;4898648;29;20211;-77
2022/12/04 06:15:50;;;;;;;52.53;18.23;;;1.00;99.90;;;;;;4898795;29;20229;-76
2022/12/04 06:18:20;;;;;;;47.87;18.67;;;1.10;99.90;;;;;;4902697;29;20778;-78
2022/12/04 06:21:07;;;;;;;46.90;18.17;;;1.10;99.90;;;;;;4898570;29;20203;-79
2022/12/04 06:23:54;;;;;;;51.30;18.50;;;1.20;99.90;;;;;;4912835;29;20199;-80
2022/12/04 06:26:31;;;;;;;48.10;17.93;;;1.20;99.90;;;;;;4898942;29;20212;-79
2022/12/04 06:29:01;;;;;;;44.77;17.70;;;1.10;99.90;;;;;;4988246;28;20208;-81
2022/12/04 06:31:34;;;;;;;49.73;18.20;;;1.00;99.90;;;;;;4975180;28;20257;-81
2022/12/04 06:34:14;;;;;;;53.17;18.23;;;1.20;99.90;;;;;;4987148;28;20200;-81
2022/12/04 06:37:29;;;;;;;52.33;18.97;;;1.10;99.90;;;;;;5035476;28;20600;-81
2022/12/04 06:40:23;;;;;;;51.03;18.37;;;1.00;99.90;;;;;;5039824;28;20250;-79
2022/12/04 06:43:04;;;;;;;48.97;18.27;;;1.10;99.90;;;;;;5057001;28;20273;-77
2022/12/04 06:45:35;;;;;;;49.97;18.83;;;1.20;99.90;;;;;;5022895;28;20289;-79
2022/12/04 06:48:11;;;;;;;49.27;17.63;;;1.10;99.90;;;;;;5056723;28;20287;-78
2022/12/04 06:50:57;;;;;;;;;;;;;;;;;;;;;
2022/12/04 06:54:04;;;;;;;49.77;17.47;;;1.10;99.90;;;;;;5038506;28;20639;-81
2022/12/04 06:56:47;;;;;;;49.60;17.83;;;1.10;99.90;;;;;;4994786;28;20218;-78
2022/12/04 07:00:00;;;;;;;49.33;18.93;;;1.10;99.90;;;;;;4978815;28;20209;-78
2022/12/04 07:03:06;;;;;;;50.53;18.33;;;1.10;99.90;;;;;;4994931;28;20292;-76
2022/12/04 07:05:47;;;;;;;46.40;17.97;;;1.10;99.90;;;;;;4962970;28;20295;-81
2022/12/04 07:08:22;;;;;;;47.70;18.13;;;1.20;99.90;;;;;;4994738;28;20292;-77
2022/12/04 07:11:23;;;;;;;45.10;17.33;;;1.20;99.90;;;;;;4994880;28;20720;-81
2022/12/04 07:15:05;;;;;;;51.33;18.07;;;1.10;99.90;;;;;;4978415;28;20228;-81
2022/12/04 07:22:07;;;;;;;;;;;;;;;;;;;;;
2022/12/04 07:25:08;;;;;;;43.93;17.70;;;1.00;99.90;;;;;;4917270;29;20248;-80
2022/12/04 07:28:30;;;;;;;43.37;17.30;;;1.10;99.90;;;;;;4917367;29;20293;-77
2022/12/04 07:34:23;;;;;;;43.93;17.07;;;1.10;99.90;;;;;;4811541;29;20193;-77
2022/12/04 07:37:24;;;;;;;42.80;16.90;;;1.00;99.90;;;;;;4809433;29;20221;-81
2022/12/04 07:39:59;;;;;;;50.17;17.57;;;1.10;99.90;;;;;;4806980;29;20783;-77
2022/12/04 07:42:38;;;;;;;44.10;18.00;;;1.10;99.90;;;;;;4809375;29;20698;-80
2022/12/04 07:45:28;;;;;;;42.17;17.87;;;1.00;99.90;;;;;;4809324;29;20209;-80
2022/12/04 07:47:56;;;;;;;42.30;17.40;;;1.00;99.90;;;;;;4808390;29;20202;-78
2022/12/04 07:51:21;;;;;;;47.60;17.87;;;1.00;99.90;;;;;;4809233;29;20305;-79
2022/12/04 07:54:10;;;;;;;45.47;16.73;;;1.00;99.90;;;;;;4813499;29;20188;-80
2022/12/04 07:56:51;;;;;;;44.07;17.30;;;1.10;99.90;;;;;;4842167;29;20233;-78
2022/12/04 07:59:28;;;;;;;37.87;16.87;;;1.00;99.90;;;;;;4857802;29;20240;-81
2022/12/04 08:02:19;;;;;;;40.37;15.87;;;1.00;99.90;;;;;;4855106;29;20206;-81
2022/12/04 08:05:20;;;;;;;47.43;18.40;;;1.00;99.90;;;;;;4842135;29;20199;-77
2022/12/04 08:11:21;;;;;;;40.63;16.83;;;1.10;99.90;;;;;;4996368;28;20220;-80
2022/12/04 08:14:28;;;;;;;44.40;17.43;;;1.00;99.90;;;;;;4996507;28;20254;-79
2022/12/04 08:17:03;;;;;;;48.03;18.17;;;1.00;99.90;;;;;;4996433;28;20694;-79
2022/12/04 08:23:36;;;;;;;42.77;17.07;;;1.10;99.90;;;;;;5016265;28;20219;-79
2022/12/04 08:26:23;;;;;;;39.27;16.63;;;1.00;99.90;;;;;;5014039;28;20204;-77
2022/12/04 08:29:14;;;;;;;39.90;17.17;;;1.20;99.90;;;;;;5032706;28;20207;-82
2022/12/04 08:32:03;;;;;;;47.87;18.63;;;1.10;99.90;;;;;;5001135;28;20261;-79
2022/12/04 08:34:36;;;;;;;44.57;18.57;;;1.20;99.90;;;;;;4999358;28;20294;-79
2022/12/04 08:37:06;;;;;;;39.97;18.17;;;1.30;99.90;;;;;;5000004;28;20337;-81
2022/12/04 08:39:33;;;;;;;42.93;18.57;;;1.20;99.90;;;;;;5015741;28;20208;-77
2022/12/04 08:42:37;;;;;;;43.80;18.27;;;1.10;99.90;;;;;;5015723;28;20244;-79
2022/12/04 08:45:17;;;;;;;43.40;17.13;;;1.20;99.90;;;;;;5015696;28;20516;-80
2022/12/04 08:47:45;;;;;;;40.17;17.00;;;1.10;99.90;;;;;;5007172;28;20266;-78
2022/12/04 08:51:02;;;;;;;44.20;18.23;;;1.20;99.90;;;;;;5036517;28;20206;-80
2022/12/04 08:54:40;;;;;;;43.00;17.77;;;1.20;99.90;;;;;;5041065;28;20182;-78
2022/12/04 08:57:29;;;;;;;41.17;16.83;;;1.20;99.90;;;;;;5036292;28;20222;-82
2022/12/04 09:00:11;;;;;;;41.80;17.20;;;1.20;99.90;;;;;;5035383;28;20196;-78
2022/12/04 09:02:55;;;;;;;41.60;17.23;;;1.20;99.90;;;;;;5036301;28;20210;-81
2022/12/04 09:05:45;;;;;;;43.07;17.00;;;1.20;99.90;;;;;;5021200;28;20584;-79
2022/12/04 09:08:37;;;;;;;39.33;16.70;;;1.20;99.90;;;;;;5020826;28;20200;-81
2022/12/04 09:11:16;;;;;;;40.80;17.30;;;1.20;99.90;;;;;;5019657;28;20244;-79
2022/12/04 09:14:40;;;;;;;40.83;17.70;;;1.20;99.90;;;;;;5044816;28;20292;-80
2022/12/04 09:17:42;;;;;;;39.07;16.93;;;1.30;99.90;;;;;;4976042;28;20210;-80
2022/12/04 09:20:46;;;;;;;42.23;16.73;;;1.20;99.90;;;;;;5016528;28;20699;-76
2022/12/04 09:23:38;;;;;;;;;;;;;;;;;;;;;
2022/12/04 09:26:30;;;;;;;42.47;16.63;;;1.20;99.90;;;;;;5031384;28;20650;-79
2022/12/04 09:29:28;;;;;;;36.57;16.13;;;1.20;99.90;;;;;;5016175;28;20282;-78
2022/12/04 09:32:16;;;;;;;35.70;15.93;;;1.30;99.90;;;;;;4956860;28;20210;-81
2022/12/04 09:34:52;;;;;;;41.57;16.00;;;1.30;99.90;;;;;;4956288;28;20224;-78
2022/12/04 09:37:32;;;;;;;36.73;16.33;;;1.40;99.90;;;;;;4957416;28;20252;-79
2022/12/04 09:40:17;;;;;;;36.30;16.80;;;1.40;99.90;;;;;;4956229;28;20201;-81
2022/12/04 09:43:26;;;;;;;37.27;16.63;;;1.50;99.90;;;;;;4972468;28;20548;-80
2022/12/04 09:46:09;;;;;;;39.63;16.87;;;1.50;99.90;;;;;;4972490;28;20677;-81
2022/12/04 09:48:40;;;;;;;41.50;17.77;;;1.50;99.90;;;;;;4972756;28;20214;-82
2022/12/04 09:51:17;;;;;;;42.87;18.37;;;1.60;99.90;;;;;;4940348;28;20252;-80
2022/12/04 09:54:25;;;;;;;40.83;18.07;;;1.40;99.90;;;;;;4972956;28;20232;-80
2022/12/04 09:57:44;;;;;;;42.97;17.90;;;1.50;99.90;;;;;;4933442;29;20232;-81
2022/12/04 10:00:22;;;;;;;41.73;18.00;;;1.50;99.90;;;;;;4917990;29;20203;-77
2022/12/04 10:03:02;;;;;;;39.87;17.77;;;1.50;99.90;;;;;;4917990;29;20250;-81
2022/12/04 10:06:17;;;;;;;40.07;18.10;;;1.50;99.90;;;;;;4933698;29;20208;-80
2022/12/04 10:09:11;;;;;;;38.00;18.17;;;1.50;99.90;;;;;;4955532;28;20201;-81
2022/12/04 10:12:31;;;;;;;38.40;17.90;;;1.50;99.90;;;;;;4974911;28;20236;-78
2022/12/04 10:15:27;;;;;;;40.07;17.90;;;1.50;99.90;;;;;;4974187;28;20555;-78
2022/12/04 10:18:15;;;;;;;42.70;18.63;;;1.60;99.90;;;;;;5027343;28;20621;-77
2022/12/04 10:21:01;;;;;;;38.40;18.23;;;1.60;99.90;;;;;;4995587;28;20549;-79
2022/12/04 10:24:19;;;;;;;39.23;18.27;;;1.60;99.90;;;;;;5027319;28;20281;-79
2022/12/04 10:26:57;;;;;;;37.00;17.90;;;1.60;99.90;;;;;;4994336;28;20309;-81
2022/12/04 10:29:53;;;;;;;38.90;17.87;;;1.60;99.90;;;;;;5077575;28;20668;-80
2022/12/04 10:33:15;;;;;;;43.00;18.97;;;1.60;99.90;;;;;;5093193;28;20263;-79
2022/12/04 10:36:08;;;;;;;39.07;18.00;;;1.60;99.90;;;;;;5005869;28;20200;-79
2022/12/04 10:39:30;;;;;;;40.13;18.50;;;1.70;99.90;;;;;;5028534;28;20231;-79
2022/12/04 10:43:07;;;;;;;51.57;19.90;;;1.50;99.90;;;;;;5027858;28;20189;-77
2022/12/04 10:49:40;;;;;;;;;;;;;;;;;;;;;
2022/12/04 10:52:40;;;;;;;37.63;17.57;;;1.60;99.90;;;;;;4952155;29;20222;-81
2022/12/04 10:55:40;;;;;;;37.10;17.40;;;1.70;99.90;;;;;;4952168;29;20659;-76
2022/12/04 10:58:29;;;;;;;36.20;17.70;;;1.70;99.90;;;;;;4920781;29;20267;-74
2022/12/04 11:02:49;;;;;;;;;;;;;;;;;;;;;
2022/12/04 11:06:39;;;;;;;38.05;17.63;;;1.80;99.90;;;;;;4541208;27;15653124;-79
2022/12/04 11:10:09;;;;;;;;;;;;;;;;;;;;;
2022/12/04 11:13:31;;;;;;;36.83;16.47;;;1.70;99.90;;;;;;4967603;28;20232;-84
2022/12/04 11:17:51;;;;;;;;;;;;;;;;;;;;;
2022/12/04 11:21:40;;;;;;;35.60;15.83;;;1.80;99.90;;;;;;4873853;29;20211;-79
2022/12/04 11:24:53;;;;;;;34.00;16.20;;;1.80;99.90;;;;;;4822346;29;20225;-81
2022/12/04 11:27:36;;;;;;;29.37;14.80;;;1.80;99.90;;;;;;4837374;29;20578;-80
2022/12/04 11:30:14;;;;;;;32.20;15.40;;;1.70;99.90;;;;;;4821564;29;20310;-81
2022/12/04 11:33:01;;;;;;;31.60;15.30;;;1.80;99.90;;;;;;4821688;29;20650;-87
2022/12/04 11:36:04;;;;;;;36.47;16.00;;;1.70;99.90;;;;;;4821689;29;20546;-80
2022/12/04 11:40:15;;;;;;;36.27;16.67;;;1.80;99.90;;;;;;4839104;29;20342;-79
2022/12/04 11:43:52;;;;;;;33.30;15.90;;;1.80;99.90;;;;;;4895543;29;20200;-86
2022/12/04 11:47:26;;;;;;;30.60;14.60;;;1.80;99.90;;;;;;4836978;29;20612;-78
2022/12/04 11:50:22;;;;;;;34.33;16.13;;;1.80;99.90;;;;;;4869437;29;20253;-80
2022/12/04 11:53:33;;;;;;;35.17;16.13;;;1.80;99.90;;;;;;4837093;29;20198;-80
2022/12/04 11:56:26;;;;;;;34.67;15.40;;;1.80;99.90;;;;;;4786460;29;20194;-79
2022/12/04 11:59:51;;;;;;;35.07;16.57;;;1.80;99.90;;;;;;4799006;29;20319;-78
2022/12/04 12:03:09;;;;;;;34.70;16.63;;;1.80;99.90;;;;;;4799463;29;20206;-83
2022/12/04 12:06:29;;;;;;;34.07;15.83;;;1.90;99.90;;;;;;4818062;29;20247;-83
2022/12/04 12:09:32;;;;;;;35.50;16.63;;;1.90;99.90;;;;;;4803473;29;20237;-85
2022/12/04 12:12:23;;;;;;;35.30;17.13;;;2.00;99.90;;;;;;4802977;29;20202;-87
2022/12/04 12:15:21;;;;;;;35.10;16.77;;;1.90;99.90;;;;;;4813240;29;20220;-84
2022/12/04 12:18:32;;;;;;;36.67;16.73;;;1.90;99.90;;;;;;4842651;29;20281;-87
2022/12/04 12:21:19;;;;;;;38.00;18.07;;;1.90;99.90;;;;;;4877335;29;20226;-80
2022/12/04 12:24:22;;;;;;;37.03;17.23;;;2.00;99.90;;;;;;4863560;29;20224;-80
2022/12/04 12:27:08;;;;;;;34.27;17.40;;;2.10;99.90;;;;;;4879204;29;20607;-80
2022/12/04 12:29:53;;;;;;;35.60;15.93;;;2.10;99.90;;;;;;4932805;28;20237;-81
2022/12/04 12:33:21;;;;;;;32.80;17.07;;;2.10;99.90;;;;;;5017744;28;20197;-75
2022/12/04 12:36:04;;;;;;;36.70;16.97;;;2.00;99.90;;;;;;5019532;28;20278;-76
2022/12/04 12:38:43;;;;;;;31.33;15.67;;;2.00;99.90;;;;;;5021709;28;20195;-76
2022/12/04 12:42:04;;;;;;;32.70;16.20;;;2.00;99.90;;;;;;5038167;28;20191;-76
2022/12/04 12:44:51;;;;;;;31.20;16.30;;;2.00;99.90;;;;;;4994622;28;20244;-77
2022/12/04 12:51:46;;;;;;;35.07;16.50;;;1.90;99.90;;;;;;5049136;28;20646;-75
2022/12/04 12:54:56;;;;;;;33.57;16.30;;;2.00;99.90;;;;;;5054575;28;20266;-76
2022/12/04 12:58:37;;;;;;;32.50;16.10;;;1.90;99.90;;;;;;5042803;28;20416;-76
2022/12/04 13:01:45;;;;;;;34.23;16.23;;;1.90;99.90;;;;;;5032776;28;20553;-77
2022/12/04 13:04:51;;;;;;;36.37;17.07;;;1.80;99.90;;;;;;5053390;28;20311;-77
2022/12/04 13:08:18;;;;;;;35.33;16.93;;;1.90;99.90;;;;;;5031558;28;20269;-77
2022/12/04 13:11:27;;;;;;;36.57;16.77;;;2.00;99.90;;;;;;4936518;29;20218;-76
2022/12/04 13:13:59;;;;;;;34.90;17.13;;;1.90;99.90;;;;;;4895994;29;20202;-77
2022/12/04 13:17:35;;;;;;;35.37;17.00;;;2.00;99.90;;;;;;4895452;29;20289;-77
2022/12/04 13:20:22;;;;;;;33.70;16.93;;;1.90;99.90;;;;;;4814583;29;20258;-78
2022/12/04 13:23:22;;;;;;;34.50;16.27;;;1.90;99.90;;;;;;4812903;29;20655;-76
2022/12/04 13:27:15;;;;;;;36.13;17.20;;;1.90;99.90;;;;;;4747590;30;20215;-77
2022/12/04 13:30:03;;;;;;;35.40;17.57;;;2.00;99.90;;;;;;4726622;30;20799;-76
2022/12/04 13:33:15;;;;;;;36.23;17.57;;;1.90;99.90;;;;;;4728780;30;20274;-77
2022/12/04 13:36:27;;;;;;;34.03;16.97;;;1.90;99.90;;;;;;4717463;30;20663;-78
2022/12/04 13:39:45;;;;;;;40.37;17.87;;;1.90;99.90;;;;;;4725635;30;20203;-77
2022/12/04 13:43:24;;;;;;;39.33;17.50;;;2.00;99.90;;;;;;4726239;30;20209;-77
2022/12/04 13:46:37;;;;;;;37.97;17.63;;;2.00;99.90;;;;;;4698800;30;20240;-76
2022/12/04 13:49:37;;;;;;;39.77;17.80;;;2.00;99.90;;;;;;4694386;30;20202;-76
2022/12/04 13:52:59;;;;;;;38.60;17.00;;;1.90;99.90;;;;;;4725824;30;20250;-77
2022/12/04 13:55:44;;;;;;;42.90;17.00;;;1.80;99.90;;;;;;4758939;29;20631;-77
2022/12/04 13:58:52;;;;;;;39.83;18.27;;;1.80;99.90;;;;;;4788011;29;20210;-78
2022/12/04 14:01:27;;;;;;;42.23;18.10;;;2.00;99.90;;;;;;4788640;29;20294;-78
2022/12/04 14:03:56;;;;;;;39.07;18.07;;;1.90;99.90;;;;;;4819024;29;20231;-77
2022/12/04 14:06:42;;;;;;;35.27;17.73;;;1.90;99.90;;;;;;4895855;29;20307;-78
2022/12/04 14:10:05;;;;;;;40.83;18.80;;;1.90;99.90;;;;;;4909952;29;20203;-77
2022/12/04 14:13:01;;;;;;;37.87;17.67;;;1.80;99.90;;;;;;4870971;29;20252;-81
2022/12/04 14:15:35;;;;;;;39.60;17.97;;;1.90;99.90;;;;;;4838979;29;20238;-79
2022/12/04 14:18:18;;;;;;;33.20;16.70;;;1.80;99.90;;;;;;4868174;29;20235;-80
2022/12/04 14:21:00;;;;;;;35.50;16.73;;;1.70;99.90;;;;;;4933739;29;20206;-76
2022/12/04 14:23:38;;;;;;;34.30;16.30;;;1.70;99.90;;;;;;4947972;29;20213;-80
2022/12/04 14:26:24;;;;;;;34.90;16.53;;;1.80;99.90;;;;;;4935303;29;20204;-79
2022/12/04 14:29:56;;;;;;;37.40;17.87;;;1.80;99.90;;;;;;4931556;29;20535;-80
2022/12/04 14:33:16;;;;;;;33.00;16.20;;;1.80;99.90;;;;;;4947096;29;20205;-79
2022/12/04 14:36:08;;;;;;;34.03;16.17;;;1.70;99.90;;;;;;4947810;29;20209;-79
2022/12/04 14:38:51;;;;;;;39.03;17.43;;;1.70;99.90;;;;;;4948924;28;20206;-79
2022/12/04 14:41:25;;;;;;;33.90;17.00;;;1.70;99.90;;;;;;4914836;29;20206;-80
2022/12/04 14:48:10;;;;;;;34.07;16.30;;;1.70;99.90;;;;;;4896824;29;20637;-76
2022/12/04 14:50:55;;;;;;;35.47;16.83;;;1.70;99.90;;;;;;4966179;28;20207;-76
2022/12/04 14:54:03;;;;;;;33.20;16.07;;;1.70;99.90;;;;;;4967777;28;20625;-77
2022/12/04 14:57:41;;;;;;;;;;;;;;;;;;;;;
2022/12/04 15:00:26;;;;;;;37.77;17.07;;;1.70;99.90;;;;;;4951131;29;20204;-81
2022/12/04 15:03:52;;;;;;;38.90;17.87;;;1.70;99.90;;;;;;4936616;28;20201;-80
2022/12/04 15:07:27;;;;;;;34.13;17.07;;;1.70;99.90;;;;;;4939225;29;20208;-78
2022/12/04 15:13:41;;;;;;;36.07;17.00;;;1.60;99.90;;;;;;4952316;29;20205;-80
2022/12/04 15:16:23;;;;;;;37.93;18.27;;;1.60;99.90;;;;;;4936776;29;20206;-78
2022/12/04 15:19:56;;;;;;;;;;;;;;;;;;;;;
2022/12/04 15:31:24;;;;;;;33.77;16.40;;;1.50;99.90;;;;;;4793181;29;20609;-80
2022/12/04 15:35:08;;;;;;;34.90;17.00;;;1.60;99.90;;;;;;4790370;29;20222;-79
2022/12/04 15:38:16;;;;;;;;;;;;;;;;;;;;;
2022/12/04 15:41:04;;;;;;;35.53;17.07;;;1.60;99.90;;;;;;4770780;29;20254;-80
2022/12/04 15:44:59;;;;;;;35.53;17.27;;;1.60;99.90;;;;;;4802452;29;20255;-78
2022/12/04 15:48:06;;;;;;;34.93;17.23;;;1.60;99.90;;;;;;4735221;30;20307;-79
2022/12/04 15:50:34;;;;;;;36.47;16.87;;;1.60;99.90;;;;;;4736297;30;20311;-77
2022/12/04 15:53:44;;;;;;;;;;;;;;;;;;;;;
2022/12/04 15:56:43;;;;;;;34.40;16.93;;;1.50;99.90;;;;;;4735947;30;20189;-78
2022/12/04 15:59:33;;;;;;;39.83;17.40;;;1.50;99.90;;;;;;4717567;30;20197;-79
2022/12/04 16:02:47;;;;;;;33.87;16.80;;;1.50;99.90;;;;;;4740516;30;20221;-79
2022/12/04 16:06:01;;;;;;;34.23;16.97;;;1.50;99.90;;;;;;4771909;30;20239;-77
2022/12/04 16:18:23;;;;;;;33.53;16.53;;;1.50;99.90;;;;;;4839327;29;20207;-77
2022/12/04 16:20:55;;;;;;;33.43;16.07;;;1.50;99.90;;;;;;4810950;29;20296;-82
2022/12/04 16:23:41;;;;;;;30.47;16.13;;;1.50;99.90;;;;;;4849195;29;20203;-81
2022/12/04 16:26:43;;;;;;;33.50;15.53;;;1.40;99.90;;;;;;4867017;29;20192;-79
2022/12/04 16:29:13;;;;;;;32.50;15.37;;;1.40;99.90;;;;;;4879613;29;20234;-79
2022/12/04 16:31:41;;;;;;;34.37;16.53;;;1.50;99.90;;;;;;4864573;29;20206;-80
2022/12/04 16:34:23;;;;;;;31.43;16.37;;;1.40;99.90;;;;;;4864400;29;20212;-82